createdAt,value
2022-08-14T00:00:20.789Z,16.40
2022-08-14T00:05:44.146Z,14.67
2022-08-14T00:10:52.511Z,15.13
2022-08-14T00:15:57.220Z,14.60
2022-08-14T00:21:02.887Z,15.57
2022-08-14T00:26:08.549Z,12.80
2022-08-14T00:31:35.180Z,13.77
2022-08-14T00:36:49.534Z,13.20
2022-08-14T00:41:52.739Z,12.97
2022-08-14T00:46:58.849Z,13.47
2022-08-14T00:52:02.109Z,11.32
2022-08-14T00:57:05.861Z,12.70
2022-08-14T01:02:10.622Z,13.20
2022-08-14T01:07:21.520Z,13.77
2022-08-14T01:12:29.816Z,13.40
2022-08-14T01:17:52.538Z,11.30
2022-08-14T01:22:55.372Z,13.13
2022-08-14T01:27:58.812Z,15.30
2022-08-14T01:33:02.966Z,12.63
2022-08-14T01:38:05.799Z,13.57
2022-08-14T01:43:14.734Z,12.47
2022-08-14T01:48:20.601Z,12.40
2022-08-14T01:53:23.869Z,12.50
2022-08-14T01:58:33.156Z,11.30
2022-08-14T02:03:41.062Z,11.50
2022-08-14T02:08:55.243Z,14.97
2022-08-14T02:14:07.510Z,15.70
2022-08-14T02:19:14.314Z,10.47
2022-08-14T02:24:39.573Z,13.10
2022-08-14T02:29:59.560Z,13.40
2022-08-14T02:35:07.286Z,11.83
2022-08-14T02:40:12.891Z,14.70
2022-08-14T02:45:15.719Z,13.57
2022-08-14T02:50:21.276Z,13.40
2022-08-14T02:55:31.042Z,11.60
2022-08-14T03:00:39.873Z,14.20
2022-08-14T03:05:43.738Z,12.27
2022-08-14T03:10:49.320Z,14.10
2022-08-14T03:15:55.590Z,13.30
2022-08-14T03:21:04.920Z,14.30
2022-08-14T03:26:18.557Z,12.00
2022-08-14T03:31:33.122Z,14.00
2022-08-14T03:37:51.074Z,11.80
2022-08-14T03:41:59.765Z,13.97
2022-08-14T03:47:04.816Z,11.97
2022-08-14T03:52:37.514Z,15.43
2022-08-14T03:57:32.466Z,13.30
2022-08-14T04:02:37.545Z,14.43
2022-08-14T04:08:08.209Z,14.70
2022-08-14T04:13:12.774Z,14.57
2022-08-14T04:18:15.749Z,16.77
2022-08-14T04:23:23.601Z,15.17
2022-08-14T04:29:09.251Z,15.17
2022-08-14T04:33:55.571Z,16.47
2022-08-14T04:39:22.029Z,16.57
2022-08-14T04:44:26.684Z,15.13
2022-08-14T04:49:46.595Z,16.23
2022-08-14T04:54:59.935Z,16.40
2022-08-14T05:00:04.740Z,16.37
2022-08-14T05:05:09.046Z,18.57
2022-08-14T05:10:16.773Z,20.83
2022-08-14T05:15:29.521Z,24.35
2022-08-14T05:21:54.134Z,21.47
2022-08-14T05:26:02.026Z,23.00
2022-08-14T05:31:08.862Z,25.83
2022-08-14T05:36:16.632Z,24.47
2022-08-14T05:41:20.174Z,28.83
2022-08-14T05:46:24.721Z,26.83
2022-08-14T05:51:28.591Z,27.43
2022-08-14T05:56:34.120Z,24.97
2022-08-14T06:01:40.028Z,24.20
2022-08-14T06:06:42.767Z,23.90
2022-08-14T06:11:45.735Z,24.83
2022-08-14T06:16:53.283Z,17.70
2022-08-14T06:21:58.341Z,17.93
2022-08-14T06:27:04.418Z,24.17
2022-08-14T06:32:38.726Z,20.13
2022-08-14T06:37:50.683Z,14.67
2022-08-14T06:42:53.822Z,17.92
2022-08-14T06:47:58.855Z,17.07
2022-08-14T06:53:01.839Z,14.23
2022-08-14T06:58:04.773Z,12.07
2022-08-14T07:03:34.832Z,13.30
2022-08-14T07:08:39.070Z,14.80
2022-08-14T07:13:41.849Z,15.13
2022-08-14T07:18:45.744Z,16.53
2022-08-14T07:23:53.697Z,12.82
2022-08-14T07:28:56.426Z,14.32
2022-08-14T07:34:00.124Z,15.52
2022-08-14T07:39:12.517Z,14.17
2022-08-14T07:44:32.957Z,13.63
2022-08-14T07:49:39.034Z,14.18
2022-08-14T07:54:43.652Z,14.93
2022-08-14T07:59:49.034Z,16.08
2022-08-14T08:04:58.965Z,14.37
2022-08-14T08:10:40.693Z,12.87
2022-08-14T08:15:59.360Z,13.75
2022-08-14T08:21:02.470Z,11.57
2022-08-14T08:26:05.276Z,11.18
2022-08-14T08:31:08.414Z,11.30
2022-08-14T08:36:12.902Z,10.60
2022-08-14T08:41:21.131Z,8.43
2022-08-14T08:46:24.734Z,9.85
2022-08-14T08:51:34.553Z,10.35
2022-08-14T08:56:47.635Z,9.07
2022-08-14T09:01:57.732Z,8.77
2022-08-14T09:07:10.407Z,7.72
2022-08-14T09:12:15.258Z,8.75
2022-08-14T09:17:17.946Z,8.75
2022-08-14T09:22:35.681Z,9.20
2022-08-14T09:27:39.661Z,14.25
2022-08-14T09:33:17.311Z,9.85
2022-08-14T09:38:48.000Z,11.00
2022-08-14T09:44:04.643Z,11.07
2022-08-14T09:49:12.021Z,12.32
2022-08-14T09:54:23.493Z,11.45
2022-08-14T09:59:27.947Z,9.05
2022-08-14T10:04:36.576Z,10.25
2022-08-14T10:09:57.771Z,8.45
2022-08-14T10:15:13.612Z,9.43
2022-08-14T10:20:40.501Z,10.55
2022-08-14T10:25:50.874Z,11.98
2022-08-14T10:30:54.563Z,13.02
2022-08-14T10:36:00.703Z,13.95
2022-08-14T10:41:14.334Z,11.00
2022-08-14T10:47:36.163Z,8.32
2022-08-14T10:51:41.802Z,6.28
2022-08-14T10:56:45.574Z,7.70
2022-08-14T11:01:48.866Z,6.78
2022-08-14T11:06:55.286Z,6.55
2022-08-14T11:12:33.151Z,5.70
2022-08-14T11:17:22.338Z,8.70
2022-08-14T11:22:55.641Z,6.47
2022-08-14T11:27:54.969Z,6.28
2022-08-14T11:32:58.574Z,8.18
2022-08-14T11:38:03.617Z,6.78
2022-08-14T11:43:33.520Z,8.00
2022-08-14T11:49:02.854Z,7.80
2022-08-14T11:54:08.233Z,6.13
2022-08-14T11:59:26.444Z,7.80
2022-08-14T12:04:36.627Z,7.22
2022-08-14T12:09:43.085Z,6.88
2022-08-14T12:14:56.328Z,10.05
2022-08-14T12:20:07.348Z,4.10
2022-08-14T12:25:24.599Z,7.43
2022-08-14T12:30:29.452Z,4.85
2022-08-14T12:35:45.252Z,6.53
2022-08-14T12:40:52.829Z,6.55
2022-08-14T12:45:58.731Z,4.68
2022-08-14T12:51:01.546Z,4.00
2022-08-14T12:56:22.782Z,7.60
2022-08-14T13:02:00.301Z,3.63
2022-08-14T13:06:56.023Z,4.47
2022-08-14T13:12:31.725Z,6.60
2022-08-14T13:17:24.481Z,4.25
2022-08-14T13:22:38.281Z,4.68
2022-08-14T13:28:00.667Z,4.30
2022-08-14T13:33:06.792Z,3.97
2022-08-14T13:38:25.625Z,5.95
2022-08-14T13:43:36.445Z,6.80
2022-08-14T13:48:39.327Z,2.65
2022-08-14T13:54:07.195Z,7.90
2022-08-14T13:59:11.701Z,3.50
2022-08-14T14:04:20.246Z,3.75
2022-08-14T14:09:32.618Z,6.38
2022-08-14T14:14:51.159Z,8.23
2022-08-14T14:19:55.231Z,5.88
2022-08-14T14:24:58.048Z,4.53
2022-08-14T14:30:03.345Z,3.40
2022-08-14T14:35:22.764Z,5.18
2022-08-14T14:40:53.145Z,4.25
2022-08-14T14:45:58.987Z,3.15
2022-08-14T14:51:01.774Z,4.60
2022-08-14T14:56:49.919Z,4.00
2022-08-14T15:01:28.110Z,4.55
2022-08-14T15:06:34.169Z,3.97
2022-08-14T15:11:36.955Z,3.15
2022-08-14T15:16:41.298Z,4.22
2022-08-14T15:21:44.230Z,5.75
2022-08-14T15:26:46.935Z,8.60
2022-08-14T15:31:50.643Z,3.20
2022-08-14T15:36:56.124Z,3.58
2022-08-14T15:42:02.023Z,3.47
2022-08-14T15:47:09.271Z,4.80
2022-08-14T15:52:12.004Z,3.78
2022-08-14T15:57:15.856Z,4.80
2022-08-14T16:02:24.381Z,3.20
2022-08-14T16:07:30.857Z,3.85
2022-08-14T16:12:45.946Z,3.88
2022-08-14T16:17:50.876Z,3.22
2022-08-14T16:22:59.080Z,3.83
2022-08-14T16:28:07.276Z,5.97
2022-08-14T16:33:11.372Z,2.92
2022-08-14T16:38:46.518Z,4.47
2022-08-14T16:43:54.094Z,3.28
2022-08-14T16:49:05.561Z,3.03
2022-08-14T16:54:21.015Z,3.33
2022-08-14T16:59:52.625Z,5.78
2022-08-14T17:05:15.693Z,4.57
2022-08-14T17:10:28.235Z,5.97
2022-08-14T17:15:31.840Z,5.13
2022-08-14T17:20:53.266Z,6.53
2022-08-14T17:25:58.305Z,6.82
2022-08-14T17:31:03.001Z,5.30
2022-08-14T17:36:24.308Z,6.95
2022-08-14T17:41:32.860Z,6.15
2022-08-14T17:46:48.116Z,6.82
2022-08-14T17:52:07.746Z,6.70
2022-08-14T17:57:23.307Z,6.05
2022-08-14T18:02:31.418Z,7.43
2022-08-14T18:08:31.288Z,6.30
2022-08-14T18:13:00.416Z,9.30
2022-08-14T18:18:08.774Z,6.80
2022-08-14T18:23:12.972Z,7.32
2022-08-14T18:28:43.623Z,7.78
2022-08-14T18:33:44.997Z,7.07
2022-08-14T18:39:00.161Z,9.27
2022-08-14T18:44:03.727Z,8.45
2022-08-14T18:49:16.506Z,8.43
2022-08-14T18:54:32.993Z,8.65
2022-08-14T18:59:42.307Z,7.85
2022-08-14T19:04:46.168Z,11.10
2022-08-14T19:09:58.042Z,9.32
2022-08-14T19:15:09.071Z,10.75
2022-08-14T19:20:13.227Z,11.07
2022-08-14T19:25:51.816Z,10.18
2022-08-14T19:31:26.032Z,13.77
2022-08-14T19:37:05.060Z,11.25
2022-08-14T19:42:10.546Z,16.00
2022-08-14T19:47:15.795Z,11.70
2022-08-14T19:52:24.199Z,12.45
2022-08-14T19:57:29.198Z,12.63
2022-08-14T20:02:32.181Z,12.63
2022-08-14T20:08:00.530Z,14.43
2022-08-14T20:13:12.506Z,14.60
2022-08-14T20:18:49.219Z,13.35
2022-08-14T20:23:50.031Z,14.35
2022-08-14T20:28:55.523Z,15.45
2022-08-14T20:34:04.645Z,18.80
2022-08-14T20:39:15.675Z,16.05
2022-08-14T20:44:41.594Z,16.83
2022-08-14T20:49:44.655Z,15.07
2022-08-14T20:54:51.637Z,17.48
2022-08-14T20:59:57.437Z,17.10
2022-08-14T21:05:04.660Z,19.23
2022-08-14T21:10:36.199Z,17.17
2022-08-14T21:15:40.802Z,16.13
2022-08-14T21:20:53.688Z,18.77
2022-08-14T21:26:03.624Z,21.65
2022-08-14T21:31:08.863Z,19.10
2022-08-14T21:36:21.699Z,17.60
2022-08-14T21:41:41.734Z,18.17
2022-08-14T21:46:53.977Z,19.25
2022-08-14T21:52:50.495Z,18.85
2022-08-14T21:57:55.801Z,16.70
2022-08-14T22:03:02.467Z,16.13
2022-08-14T22:08:06.786Z,19.52
2022-08-14T22:13:11.238Z,20.27
2022-08-14T22:18:20.380Z,15.82
2022-08-14T22:23:24.931Z,17.85
2022-08-14T22:28:33.449Z,19.33
2022-08-14T22:33:36.634Z,20.75
2022-08-14T22:38:49.589Z,19.63
2022-08-14T22:43:59.443Z,18.65
2022-08-14T22:49:16.262Z,19.92
2022-08-14T22:54:52.680Z,18.92
2022-08-14T22:59:53.267Z,18.63
2022-08-14T23:05:05.892Z,19.63
2022-08-14T23:10:33.000Z,20.23
2022-08-14T23:15:37.405Z,19.52
2022-08-14T23:20:44.422Z,18.23
2022-08-14T23:25:59.387Z,19.27
2022-08-14T23:31:05.577Z,18.45
2022-08-14T23:36:32.847Z,21.20
2022-08-14T23:41:47.070Z,21.42
2022-08-14T23:47:03.237Z,24.60
2022-08-14T23:53:04.090Z,21.40
2022-08-14T23:57:36.752Z,21.75
